Time;durP1;ratioP1;P1;durP2;ratioP2;P2;SDS_P1;SDS_P2;PMS_P1;PMS_P2;Temp;Humidity;BMP_temperature;BMP_pressure;BME280_temperature;BME280_humidity;BME280_pressure;Samples;Min_cycle;Max_cycle;Signal;HPM_P1;HPM_P2
2023/04/28 00:02:00;;;;;;;10.00;7.20;;;11.10;95.70;;;;;;5031415;28;20198;-76
2023/04/28 00:04:25;;;;;;;10.33;7.87;;;11.10;95.90;;;;;;5029926;28;20461;-77
2023/04/28 00:06:51;;;;;;;8.70;7.77;;;11.20;97.20;;;;;;5031288;28;20425;-76
2023/04/28 00:09:17;;;;;;;9.67;7.90;;;11.20;99.00;;;;;;5031438;28;20193;-76
2023/04/28 00:11:46;;;;;;;13.07;7.70;;;11.30;99.90;;;;;;5030922;28;20201;-77
2023/04/28 00:14:12;;;;;;;8.77;7.53;;;11.20;99.90;;;;;;5025163;28;20175;-77
2023/04/28 00:16:37;;;;;;;9.43;8.20;;;11.20;99.90;;;;;;5011734;28;20446;-76
2023/04/28 00:19:03;;;;;;;9.00;8.07;;;11.20;99.90;;;;;;5011493;28;20748;-76
2023/04/28 00:21:29;;;;;;;11.33;8.33;;;11.20;99.90;;;;;;5011437;28;20537;-76
2023/04/28 00:23:55;;;;;;;11.00;7.80;;;11.20;99.90;;;;;;5011509;28;20183;-76
2023/04/28 00:26:21;;;;;;;12.83;8.10;;;11.10;99.90;;;;;;5010350;28;20179;-76
2023/04/28 00:28:46;;;;;;;9.20;7.50;;;11.10;99.90;;;;;;5010048;28;20410;-76
2023/04/28 00:31:13;;;;;;;11.63;8.43;;;11.10;99.90;;;;;;5011292;28;20237;-76
2023/04/28 00:33:39;;;;;;;10.77;7.53;;;11.10;99.90;;;;;;5011052;28;20178;-77
2023/04/28 00:36:06;;;;;;;9.57;7.73;;;11.10;99.90;;;;;;5011436;28;20410;-76
2023/04/28 00:38:31;;;;;;;11.23;8.17;;;11.00;99.90;;;;;;5009407;28;20477;-77
2023/04/28 00:40:57;;;;;;;9.80;7.83;;;11.00;99.90;;;;;;5022990;28;20870;-76
2023/04/28 00:43:23;;;;;;;9.33;7.60;;;11.00;99.90;;;;;;5049448;28;20245;-76
2023/04/28 00:45:49;;;;;;;12.50;7.30;;;11.00;99.90;;;;;;5050927;28;20260;-76
2023/04/28 00:48:16;;;;;;;12.40;8.10;;;11.00;99.90;;;;;;5050867;28;20257;-76
2023/04/28 00:50:46;;;;;;;11.70;8.30;;;10.90;99.90;;;;;;5050957;28;21002;-75
2023/04/28 00:53:12;;;;;;;9.73;8.50;;;11.00;99.90;;;;;;5051108;28;20415;-75
2023/04/28 00:55:38;;;;;;;10.67;8.00;;;10.90;99.90;;;;;;5051282;28;20412;-76
2023/04/28 00:58:05;;;;;;;10.33;8.80;;;11.00;99.90;;;;;;5049678;28;20450;-76
2023/04/28 01:00:31;;;;;;;10.20;8.80;;;10.90;99.90;;;;;;5050532;28;20432;-77
2023/04/28 01:02:58;;;;;;;9.90;8.90;;;10.90;99.90;;;;;;5046637;28;20421;-76
2023/04/28 01:05:28;;;;;;;11.17;8.63;;;10.90;99.90;;;;;;5030402;28;20483;-78
2023/04/28 01:07:54;;;;;;;11.50;8.93;;;10.90;99.90;;;;;;5030422;28;20444;-78
2023/04/28 01:10:20;;;;;;;9.50;8.50;;;10.90;99.90;;;;;;5030361;28;20409;-77
2023/04/28 01:12:45;;;;;;;12.33;8.47;;;10.90;99.90;;;;;;5030243;28;20418;-77
2023/04/28 01:15:19;;;;;;;13.33;8.50;;;10.90;99.90;;;;;;5030363;28;20564;-77
2023/04/28 01:17:46;;;;;;;11.57;9.10;;;10.90;99.90;;;;;;5029724;28;20232;-77
2023/04/28 01:20:12;;;;;;;11.10;8.20;;;10.90;99.90;;;;;;5030241;28;20777;-77
2023/04/28 01:22:38;;;;;;;10.27;8.73;;;10.90;99.90;;;;;;5030364;28;20433;-77
2023/04/28 01:25:04;;;;;;;10.93;8.80;;;10.90;99.90;;;;;;5029861;28;20471;-77
2023/04/28 01:27:29;;;;;;;10.20;8.70;;;10.90;99.90;;;;;;5030024;28;20217;-77
2023/04/28 01:29:57;;;;;;;9.20;7.97;;;10.90;99.90;;;;;;5029935;28;20437;-78
2023/04/28 01:32:22;;;;;;;8.70;7.90;;;10.80;99.90;;;;;;5029942;28;20667;-77
2023/04/28 01:34:48;;;;;;;8.93;8.03;;;10.80;99.90;;;;;;5029852;28;20446;-78
2023/04/28 01:37:14;;;;;;;10.10;8.97;;;10.80;99.90;;;;;;5028403;28;20178;-77
2023/04/28 01:39:40;;;;;;;12.47;8.53;;;10.80;99.90;;;;;;5029860;28;20206;-77
2023/04/28 01:42:05;;;;;;;11.60;9.37;;;10.90;99.90;;;;;;5044973;28;20570;-77
2023/04/28 01:44:31;;;;;;;10.77;8.90;;;10.90;99.90;;;;;;5049346;28;20202;-77
2023/04/28 01:46:57;;;;;;;9.90;8.13;;;10.90;99.90;;;;;;5049618;28;20635;-77
2023/04/28 01:49:22;;;;;;;12.20;9.27;;;10.90;99.90;;;;;;5048661;28;20185;-77
2023/04/28 01:51:48;;;;;;;10.30;9.10;;;10.90;99.90;;;;;;5049761;28;20192;-77
2023/04/28 01:54:14;;;;;;;10.10;8.80;;;10.90;99.90;;;;;;5049196;28;20913;-77
2023/04/28 01:59:24;;;;;;;11.33;8.83;;;10.80;99.90;;;;;;5029378;28;20715;-77
2023/04/28 02:01:49;;;;;;;10.57;9.47;;;10.80;99.90;;;;;;5028225;28;20627;-78
2023/04/28 02:04:16;;;;;;;11.37;9.10;;;10.90;99.90;;;;;;5027738;28;20197;-78
2023/04/28 02:06:41;;;;;;;10.37;8.70;;;10.90;99.90;;;;;;5029538;28;20189;-77
2023/04/28 02:09:07;;;;;;;10.33;8.27;;;10.90;99.90;;;;;;5027931;28;20796;-77
2023/04/28 02:11:33;;;;;;;13.33;8.93;;;10.80;99.90;;;;;;5029107;28;20286;-77
2023/04/28 02:13:58;;;;;;;13.67;9.43;;;10.80;99.90;;;;;;5029205;28;20208;-77
2023/04/28 02:16:24;;;;;;;12.97;9.40;;;10.90;99.90;;;;;;5029966;28;20286;-77
2023/04/28 02:18:50;;;;;;;10.07;9.07;;;10.90;99.90;;;;;;5029423;28;20185;-77
2023/04/28 02:21:15;;;;;;;13.70;9.27;;;10.80;99.90;;;;;;5027703;28;20249;-77
2023/04/28 02:23:41;;;;;;;11.90;8.97;;;10.90;99.90;;;;;;5028869;28;20643;-77
2023/04/28 02:26:07;;;;;;;12.27;10.00;;;10.90;99.90;;;;;;5029245;28;20394;-77
2023/04/28 02:28:32;;;;;;;11.13;9.40;;;10.90;99.90;;;;;;5028955;28;20179;-77
2023/04/28 02:31:09;;;;;;;13.90;9.47;;;10.90;99.90;;;;;;5029009;28;20226;-77
2023/04/28 02:33:36;;;;;;;10.27;9.23;;;10.90;99.90;;;;;;5027442;28;20178;-77
2023/04/28 02:36:02;;;;;;;12.93;9.50;;;10.80;99.90;;;;;;5028998;28;20813;-77
2023/04/28 02:38:28;;;;;;;19.47;10.40;;;10.80;99.90;;;;;;5028838;28;20409;-77
2023/04/28 02:40:58;;;;;;;12.83;10.20;;;10.80;99.90;;;;;;5027574;28;20893;-77
2023/04/28 02:43:25;;;;;;;11.10;9.80;;;10.80;99.90;;;;;;5028504;28;20425;-77
2023/04/28 02:45:51;;;;;;;11.53;10.33;;;10.70;99.90;;;;;;5027575;28;20927;-76
2023/04/28 02:48:16;;;;;;;11.93;9.20;;;10.60;99.90;;;;;;5027278;28;20432;-76
2023/04/28 02:50:42;;;;;;;12.07;10.07;;;10.60;99.90;;;;;;5027410;28;20887;-77
2023/04/28 02:53:08;;;;;;;12.63;10.10;;;10.60;99.90;;;;;;5028694;28;20189;-76
2023/04/28 02:55:33;;;;;;;13.27;10.00;;;10.60;99.90;;;;;;5028778;28;20185;-76
2023/04/28 02:57:59;;;;;;;10.20;9.20;;;10.70;99.90;;;;;;5028364;28;20178;-77
2023/04/28 03:00:25;;;;;;;10.50;9.40;;;10.70;99.90;;;;;;5028112;28;20264;-77
2023/04/28 03:02:50;;;;;;;10.93;9.17;;;10.70;99.90;;;;;;5027111;28;20182;-76
2023/04/28 03:05:16;;;;;;;13.73;10.00;;;10.70;99.90;;;;;;5028372;28;20220;-76
2023/04/28 03:07:41;;;;;;;10.73;9.60;;;10.80;99.90;;;;;;5028351;28;20198;-76
2023/04/28 03:10:07;;;;;;;12.53;9.93;;;10.70;99.90;;;;;;5028381;28;20703;-76
2023/04/28 03:12:33;;;;;;;10.83;9.80;;;10.80;99.90;;;;;;5027128;28;20217;-77
2023/04/28 03:15:00;;;;;;;11.33;10.13;;;10.70;99.90;;;;;;5028339;28;20496;-77
2023/04/28 03:17:25;;;;;;;10.70;9.60;;;10.70;99.90;;;;;;5026996;28;20563;-76
2023/04/28 03:19:51;;;;;;;12.33;9.93;;;10.70;99.90;;;;;;5028363;28;20421;-78
2023/04/28 03:22:17;;;;;;;14.93;10.00;;;10.70;99.90;;;;;;5028438;28;20198;-76
2023/04/28 03:24:42;;;;;;;11.53;10.23;;;10.80;99.90;;;;;;5028157;28;20206;-76
2023/04/28 03:27:08;;;;;;;11.93;9.97;;;10.80;99.90;;;;;;5028212;28;20193;-77
2023/04/28 03:29:34;;;;;;;17.13;10.70;;;10.90;99.90;;;;;;5028726;28;20236;-76
2023/04/28 03:32:00;;;;;;;13.03;9.97;;;10.90;99.90;;;;;;5026853;28;20190;-76
2023/04/28 03:34:25;;;;;;;14.60;10.23;;;10.90;99.90;;;;;;5027008;28;20189;-76
2023/04/28 03:36:51;;;;;;;14.40;10.60;;;10.90;99.90;;;;;;5028323;28;20418;-76
2023/04/28 03:39:17;;;;;;;11.23;10.03;;;10.90;99.90;;;;;;5028269;28;20179;-76
2023/04/28 03:41:42;;;;;;;15.13;10.00;;;10.90;99.90;;;;;;5026956;28;20237;-76
2023/04/28 03:44:08;;;;;;;13.23;10.87;;;10.90;99.90;;;;;;5028277;28;20640;-76
2023/04/28 03:46:34;;;;;;;13.50;11.40;;;10.80;99.90;;;;;;5028389;28;20175;-76
2023/04/28 03:49:01;;;;;;;13.77;10.87;;;10.80;99.90;;;;;;5028266;28;20170;-77
2023/04/28 03:51:27;;;;;;;12.40;11.20;;;10.80;99.90;;;;;;5028071;28;20769;-76
2023/04/28 03:53:54;;;;;;;13.87;11.20;;;10.80;99.90;;;;;;5028001;28;20412;-76
2023/04/28 03:56:19;;;;;;;12.90;11.07;;;10.80;99.90;;;;;;5028162;28;20425;-76
2023/04/28 03:58:45;;;;;;;12.03;9.67;;;10.80;99.90;;;;;;5028177;28;20474;-76
2023/04/28 04:01:11;;;;;;;15.30;9.80;;;10.80;99.90;;;;;;5028038;28;20800;-76
2023/04/28 04:03:37;;;;;;;13.50;10.40;;;10.80;99.90;;;;;;5027630;28;20190;-76
2023/04/28 04:06:03;;;;;;;10.87;9.77;;;10.80;99.90;;;;;;5027977;28;20671;-76
2023/04/28 04:08:29;;;;;;;11.27;9.93;;;10.80;99.90;;;;;;5027827;28;20178;-76
2023/04/28 04:10:54;;;;;;;14.67;10.53;;;10.70;99.90;;;;;;5028121;28;20441;-76
2023/04/28 04:13:21;;;;;;;11.83;10.03;;;10.80;99.90;;;;;;5030665;28;20673;-76
2023/04/28 04:15:46;;;;;;;12.53;10.33;;;10.80;99.90;;;;;;5031705;28;20177;-76
2023/04/28 04:18:13;;;;;;;10.33;9.33;;;10.70;99.90;;;;;;5031419;28;21084;-77
2023/04/28 04:20:39;;;;;;;11.30;10.13;;;10.70;99.90;;;;;;5031277;28;20198;-76
2023/04/28 04:23:05;;;;;;;12.87;9.40;;;10.70;99.90;;;;;;5031212;28;20499;-76
2023/04/28 04:25:31;;;;;;;10.80;9.70;;;10.70;99.90;;;;;;5031321;28;20351;-76
2023/04/28 04:27:58;;;;;;;10.90;9.50;;;10.60;99.90;;;;;;5031185;28;20171;-77
2023/04/28 04:30:23;;;;;;;14.93;9.17;;;10.60;99.90;;;;;;5031053;28;20455;-76
2023/04/28 04:32:49;;;;;;;13.30;9.90;;;10.60;99.90;;;;;;5031325;28;20848;-76
2023/04/28 04:35:15;;;;;;;9.67;8.77;;;10.60;99.90;;;;;;5031042;28;20183;-76
2023/04/28 04:37:40;;;;;;;11.07;8.67;;;10.60;99.90;;;;;;5029816;28;20192;-76
2023/04/28 04:40:07;;;;;;;9.67;8.67;;;10.60;99.90;;;;;;5030938;28;20174;-76
2023/04/28 04:42:33;;;;;;;9.93;8.97;;;10.60;99.90;;;;;;5031049;28;20194;-76
2023/04/28 04:44:58;;;;;;;9.70;8.80;;;10.60;99.90;;;;;;5030755;28;20469;-75
2023/04/28 04:47:24;;;;;;;10.20;8.53;;;10.60;99.90;;;;;;5029558;28;20440;-77
2023/04/28 04:49:51;;;;;;;10.80;8.00;;;10.60;99.90;;;;;;5030874;28;20175;-76
2023/04/28 04:52:17;;;;;;;11.90;8.93;;;10.60;99.90;;;;;;5029562;28;20287;-76
2023/04/28 04:54:43;;;;;;;8.87;7.53;;;10.70;99.90;;;;;;5029212;28;20629;-76
2023/04/28 04:57:10;;;;;;;10.60;8.33;;;10.70;99.90;;;;;;5030967;28;20422;-75
2023/04/28 04:59:36;;;;;;;11.70;8.60;;;10.70;99.90;;;;;;5029319;28;20425;-76
2023/04/28 05:02:02;;;;;;;8.57;7.67;;;10.70;99.90;;;;;;5030783;28;20437;-75
2023/04/28 05:04:27;;;;;;;9.73;8.70;;;10.80;99.90;;;;;;5030159;28;20464;-76
2023/04/28 05:06:53;;;;;;;9.33;8.43;;;10.80;99.90;;;;;;5030572;28;20417;-76
2023/04/28 05:09:19;;;;;;;9.10;8.20;;;10.90;99.90;;;;;;5025626;28;20187;-78
2023/04/28 05:11:45;;;;;;;8.73;7.90;;;10.90;99.90;;;;;;5029026;28;20194;-77
2023/04/28 05:14:10;;;;;;;9.60;8.70;;;10.90;99.90;;;;;;5032300;28;20190;-77
2023/04/28 05:16:37;;;;;;;9.67;8.67;;;10.90;99.90;;;;;;5033012;28;20914;-77
2023/04/28 05:19:03;;;;;;;9.33;8.30;;;11.00;99.90;;;;;;5031311;28;20289;-76
2023/04/28 05:21:29;;;;;;;11.07;8.27;;;11.00;99.90;;;;;;5030113;28;20441;-76
2023/04/28 05:23:56;;;;;;;11.80;9.20;;;11.00;99.90;;;;;;5030231;28;20414;-76
2023/04/28 05:26:22;;;;;;;9.70;7.80;;;10.90;99.90;;;;;;5030274;28;20807;-77
2023/04/28 05:28:48;;;;;;;10.50;8.60;;;11.00;99.90;;;;;;5028835;28;20428;-76
2023/04/28 05:31:14;;;;;;;10.27;8.83;;;11.00;99.90;;;;;;5030139;28;20463;-76
2023/04/28 05:33:39;;;;;;;8.73;7.83;;;11.00;99.90;;;;;;5030007;28;20179;-76
2023/04/28 05:36:05;;;;;;;14.47;9.40;;;11.00;99.90;;;;;;5029058;28;20174;-75
2023/04/28 05:38:32;;;;;;;11.47;8.73;;;11.00;99.90;;;;;;5030066;28;20256;-76
2023/04/28 05:40:58;;;;;;;10.93;9.27;;;11.00;99.90;;;;;;5029834;28;20784;-77
2023/04/28 05:43:24;;;;;;;9.90;8.87;;;11.00;99.90;;;;;;5029764;28;20467;-76
2023/04/28 05:45:49;;;;;;;10.30;9.30;;;10.90;99.90;;;;;;5030152;28;20589;-77
2023/04/28 05:48:15;;;;;;;9.57;8.70;;;10.90;99.90;;;;;;5029941;28;20179;-77
2023/04/28 05:50:41;;;;;;;10.40;8.43;;;10.90;99.90;;;;;;5028411;28;20210;-77
2023/04/28 05:53:06;;;;;;;9.93;8.93;;;10.90;99.90;;;;;;5029660;28;20367;-76
2023/04/28 05:55:35;;;;;;;9.23;8.43;;;10.90;99.90;;;;;;5028898;28;20233;-76
2023/04/28 06:34:37;;;;;;;9.80;8.80;;;11.00;99.90;;;;;;5028660;28;20848;-76
2023/04/28 06:37:03;;;;;;;10.40;9.40;;;11.00;99.90;;;;;;5027745;28;20421;-77
2023/04/28 06:39:29;;;;;;;10.73;9.63;;;11.00;99.90;;;;;;5028742;28;20209;-76
2023/04/28 06:41:54;;;;;;;9.63;8.60;;;11.00;99.90;;;;;;5042462;28;20285;-76
2023/04/28 06:44:20;;;;;;;11.80;8.00;;;11.00;99.90;;;;;;5048664;28;20495;-76
2023/04/28 06:46:46;;;;;;;9.47;8.50;;;11.10;99.90;;;;;;5047659;28;20327;-77
2023/04/28 06:49:12;;;;;;;10.83;9.73;;;11.20;99.90;;;;;;5048834;28;20413;-77
2023/04/28 06:51:37;;;;;;;11.13;9.93;;;11.20;99.90;;;;;;5047129;28;20276;-77
2023/04/28 06:54:03;;;;;;;10.70;9.60;;;11.30;99.90;;;;;;5048590;28;20201;-77
2023/04/28 06:56:29;;;;;;;10.47;8.23;;;11.40;99.90;;;;;;5047702;28;20347;-76
2023/04/28 06:58:56;;;;;;;10.40;9.30;;;11.50;99.90;;;;;;5048636;28;20178;-77
2023/04/28 07:01:22;;;;;;;10.13;9.13;;;11.60;99.90;;;;;;5048243;28;20367;-76
2023/04/28 07:03:47;;;;;;;9.27;7.97;;;11.60;99.90;;;;;;5026810;28;20432;-76
2023/04/28 07:06:13;;;;;;;12.20;9.23;;;11.70;99.90;;;;;;5028419;28;20724;-77
2023/04/28 07:08:41;;;;;;;10.70;9.70;;;11.70;99.90;;;;;;5028176;28;20178;-76
2023/04/28 07:11:06;;;;;;;13.60;9.40;;;11.70;99.90;;;;;;5029622;28;20201;-77
2023/04/28 07:13:32;;;;;;;9.47;8.57;;;11.70;99.90;;;;;;5029235;28;20420;-76
2023/04/28 07:15:58;;;;;;;10.77;9.10;;;11.80;99.90;;;;;;5029979;28;20761;-77
2023/04/28 07:18:23;;;;;;;9.70;8.67;;;11.90;99.90;;;;;;5029195;28;20187;-77
2023/04/28 07:20:50;;;;;;;11.60;9.30;;;11.80;99.90;;;;;;5029097;28;20194;-77
2023/04/28 07:23:15;;;;;;;10.40;9.17;;;11.80;99.90;;;;;;5028269;28;20182;-77
2023/04/28 07:25:41;;;;;;;11.50;8.90;;;11.80;99.90;;;;;;5029165;28;20456;-77
2023/04/28 07:28:07;;;;;;;10.70;9.33;;;11.90;99.90;;;;;;5029122;28;20643;-77
2023/04/28 07:30:34;;;;;;;9.27;8.37;;;11.90;99.90;;;;;;5028988;28;20452;-77
2023/04/28 07:33:00;;;;;;;10.10;8.40;;;12.00;99.90;;;;;;5027856;28;20197;-77
2023/04/28 07:35:26;;;;;;;10.50;8.77;;;12.00;99.90;;;;;;5027930;28;20824;-76
2023/04/28 07:37:52;;;;;;;9.70;8.70;;;12.10;99.90;;;;;;5028315;28;20460;-76
2023/04/28 07:40:18;;;;;;;8.63;7.80;;;12.10;99.90;;;;;;5028707;28;20179;-77
2023/04/28 07:42:44;;;;;;;8.90;7.80;;;12.10;99.90;;;;;;5028668;28;20471;-76
2023/04/28 07:45:10;;;;;;;9.93;8.93;;;12.30;99.90;;;;;;5027511;28;20492;-77
2023/04/28 07:47:36;;;;;;;9.20;8.30;;;12.40;99.90;;;;;;5028155;28;20425;-77
2023/04/28 07:50:05;;;;;;;9.00;8.10;;;12.40;99.90;;;;;;5030577;28;20751;-77
2023/04/28 07:52:31;;;;;;;11.43;8.40;;;12.40;99.90;;;;;;5031785;28;20451;-77
2023/04/28 07:54:57;;;;;;;10.90;8.10;;;12.60;99.90;;;;;;5031000;28;20417;-77
2023/04/28 07:57:23;;;;;;;9.40;8.33;;;12.60;99.90;;;;;;5031198;28;20420;-77
2023/04/28 07:59:49;;;;;;;8.57;7.77;;;12.70;99.90;;;;;;5030476;28;20498;-76
2023/04/28 08:02:15;;;;;;;8.73;7.90;;;12.70;99.90;;;;;;5029570;28;20464;-76
2023/04/28 08:04:41;;;;;;;8.57;7.57;;;12.80;99.90;;;;;;5031100;28;20530;-76
2023/04/28 08:07:08;;;;;;;9.63;8.63;;;12.80;99.90;;;;;;5030281;28;20187;-76
2023/04/28 08:09:34;;;;;;;8.90;8.00;;;12.80;99.90;;;;;;5031812;28;20643;-77
2023/04/28 08:12:00;;;;;;;10.80;7.80;;;12.90;99.90;;;;;;5031765;28;20437;-76
2023/04/28 08:14:26;;;;;;;9.47;7.77;;;12.90;99.90;;;;;;5031468;28;20421;-76
2023/04/28 08:16:52;;;;;;;9.13;8.17;;;12.90;99.90;;;;;;5031450;28;20425;-76
2023/04/28 08:19:18;;;;;;;10.53;7.90;;;12.90;99.90;;;;;;5031347;28;20417;-76
2023/04/28 08:21:43;;;;;;;12.50;8.20;;;12.90;99.90;;;;;;5031284;28;20202;-76
2023/04/28 08:24:09;;;;;;;8.57;7.67;;;12.90;99.90;;;;;;5031288;28;20167;-77
2023/04/28 08:26:36;;;;;;;9.87;8.97;;;12.90;99.90;;;;;;5030287;28;20617;-77
2023/04/28 08:29:02;;;;;;;9.57;8.57;;;13.00;99.90;;;;;;5031331;28;20421;-76
2023/04/28 08:31:28;;;;;;;9.63;8.40;;;13.00;99.90;;;;;;5031184;28;20444;-77
2023/04/28 08:33:53;;;;;;;8.50;7.23;;;13.10;99.90;;;;;;5031325;28;20647;-77
2023/04/28 08:36:20;;;;;;;8.83;7.93;;;13.10;99.90;;;;;;5031278;28;20174;-76
2023/04/28 08:38:46;;;;;;;8.50;7.70;;;13.20;99.90;;;;;;5031132;28;20309;-76
2023/04/28 08:41:15;;;;;;;12.37;7.70;;;13.30;99.90;;;;;;5029858;28;20433;-76
2023/04/28 08:43:42;;;;;;;9.53;7.53;;;13.30;99.90;;;;;;5030759;28;20963;-76
2023/04/28 08:46:08;;;;;;;9.53;7.30;;;13.30;99.90;;;;;;5030927;28;20465;-76
2023/04/28 08:48:40;;;;;;;8.80;7.47;;;13.40;99.90;;;;;;5030887;28;20420;-76
2023/04/28 08:51:07;;;;;;;9.10;7.90;;;13.40;99.90;;;;;;5029642;28;20495;-76
2023/04/28 08:53:37;;;;;;;9.60;8.07;;;13.50;99.90;;;;;;5030830;28;20523;-77
2023/04/28 08:56:05;;;;;;;8.37;7.50;;;13.50;99.90;;;;;;5030983;28;20421;-77
2023/04/28 08:58:34;;;;;;;8.67;7.87;;;13.60;99.90;;;;;;5030598;28;20430;-76
2023/04/28 09:01:03;;;;;;;8.20;7.40;;;13.60;99.90;;;;;;5030676;28;20444;-76
2023/04/28 09:03:30;;;;;;;11.10;8.17;;;13.60;99.90;;;;;;5020603;28;21053;-77
2023/04/28 09:05:56;;;;;;;8.50;6.77;;;13.60;99.90;;;;;;5027984;28;20468;-76
2023/04/28 09:08:21;;;;;;;9.87;8.70;;;13.60;99.90;;;;;;5029242;28;20956;-76
2023/04/28 09:10:47;;;;;;;9.23;8.30;;;13.60;99.90;;;;;;5030347;28;20461;-76
2023/04/28 09:13:25;;;;;;;11.07;8.63;;;13.60;99.90;;;;;;5028887;28;20183;-77
2023/04/28 09:15:58;;;;;;;11.20;8.47;;;13.70;99.90;;;;;;5022544;28;20556;-76
2023/04/28 09:18:24;;;;;;;9.87;8.00;;;13.70;99.90;;;;;;5027687;28;20906;-76
2023/04/28 09:20:50;;;;;;;7.90;7.00;;;13.70;99.90;;;;;;5028871;28;20448;-76
2023/04/28 09:23:19;;;;;;;9.33;8.07;;;13.70;99.90;;;;;;5030160;28;20193;-77
2023/04/28 09:26:06;;;;;;;9.90;7.87;;;13.80;99.90;;;;;;5030167;28;20496;-76
2023/04/28 09:28:34;;;;;;;11.67;7.93;;;13.80;99.90;;;;;;5030740;28;20779;-76
2023/04/28 09:31:01;;;;;;;9.23;8.27;;;13.80;99.90;;;;;;5030156;28;20433;-76
2023/04/28 09:33:27;;;;;;;8.60;7.70;;;13.80;99.90;;;;;;5030057;28;20424;-76
2023/04/28 09:35:53;;;;;;;8.20;7.37;;;13.80;99.90;;;;;;5028915;28;20903;-76
2023/04/28 09:38:20;;;;;;;9.23;7.77;;;13.90;99.90;;;;;;5028921;28;20483;-77
2023/04/28 09:40:51;;;;;;;9.53;7.87;;;13.80;99.90;;;;;;5029625;28;20451;-76
2023/04/28 09:43:25;;;;;;;9.73;7.67;;;13.80;99.90;;;;;;5022416;28;20429;-76
2023/04/28 09:45:51;;;;;;;10.70;8.37;;;13.90;99.90;;;;;;5025942;28;20476;-77
2023/04/28 09:48:17;;;;;;;8.33;7.37;;;13.90;99.90;;;;;;5028321;28;20448;-76
2023/04/28 09:50:43;;;;;;;8.47;7.57;;;13.90;99.90;;;;;;5029596;28;20479;-76
2023/04/28 09:53:12;;;;;;;9.40;8.10;;;13.90;99.90;;;;;;5028244;28;20420;-76
2023/04/28 09:55:43;;;;;;;8.27;7.10;;;13.90;99.90;;;;;;5029870;28;20182;-76
2023/04/28 09:58:11;;;;;;;8.80;7.90;;;13.90;99.90;;;;;;5029516;28;20895;-76
2023/04/28 10:00:39;;;;;;;9.40;7.77;;;14.00;99.90;;;;;;5028208;28;20653;-76
2023/04/28 10:03:08;;;;;;;8.27;6.97;;;14.00;99.90;;;;;;5026927;28;20876;-76
2023/04/28 10:05:34;;;;;;;11.43;7.80;;;14.00;99.90;;;;;;5029575;28;20996;-76
2023/04/28 10:08:21;;;;;;;11.13;7.67;;;14.00;99.90;;;;;;5029268;28;20428;-76
2023/04/28 10:10:53;;;;;;;9.70;8.70;;;14.10;99.90;;;;;;5027377;28;20472;-76
2023/04/28 10:13:20;;;;;;;8.60;7.40;;;14.10;99.90;;;;;;5029290;28;20425;-76
2023/04/28 10:15:45;;;;;;;8.00;7.07;;;14.10;99.90;;;;;;5029567;28;20446;-76
2023/04/28 10:18:15;;;;;;;7.90;7.00;;;14.10;99.90;;;;;;5027718;28;20504;-77
2023/04/28 10:20:51;;;;;;;7.77;7.03;;;14.20;99.90;;;;;;5029105;28;20436;-76
2023/04/28 10:23:42;;;;;;;9.97;7.80;;;14.20;99.90;;;;;;5028997;28;20913;-76
2023/04/28 10:26:13;;;;;;;8.03;7.20;;;14.30;99.90;;;;;;5028035;28;20818;-76
2023/04/28 10:28:46;;;;;;;8.30;7.50;;;14.30;99.90;;;;;;5028700;28;20500;-76
2023/04/28 10:31:12;;;;;;;8.90;7.97;;;14.30;99.90;;;;;;5029158;28;20440;-76
2023/04/28 10:33:39;;;;;;;8.73;7.87;;;14.30;99.90;;;;;;5028501;28;20410;-77
2023/04/28 10:36:06;;;;;;;8.50;6.90;;;14.30;99.90;;;;;;5028409;28;20965;-76
2023/04/28 10:38:33;;;;;;;10.07;8.10;;;14.30;99.90;;;;;;5027656;28;20551;-76
2023/04/28 10:41:02;;;;;;;8.73;7.80;;;14.40;99.90;;;;;;5028736;28;20587;-77
2023/04/28 10:43:28;;;;;;;8.93;8.00;;;14.40;99.90;;;;;;5027510;28;20423;-76
2023/04/28 10:45:54;;;;;;;;;;;;;;;;;;;;;
2023/04/28 10:48:32;;;;;;;10.90;8.30;;;14.50;99.90;;;;;;5028687;28;20974;-76
2023/04/28 10:51:04;;;;;;;9.60;7.50;;;14.50;99.90;;;;;;5027146;28;20686;-76
2023/04/28 10:53:42;;;;;;;11.00;7.83;;;14.50;99.90;;;;;;5025451;28;20431;-76
2023/04/28 10:56:26;;;;;;;8.80;7.50;;;14.40;99.90;;;;;;5028879;28;20780;-77
2023/04/28 10:58:54;;;;;;;7.73;7.03;;;14.40;99.90;;;;;;5027605;28;20447;-76
2023/04/28 11:01:33;;;;;;;8.40;7.00;;;14.40;99.90;;;;;;5028143;28;20486;-76
2023/04/28 11:04:12;;;;;;;9.83;7.60;;;14.40;99.90;;;;;;5005887;28;20464;-76
2023/04/28 11:06:45;;;;;;;9.53;8.60;;;14.40;99.90;;;;;;5003886;28;20472;-77
2023/04/28 11:09:13;;;;;;;9.10;8.20;;;14.30;99.90;;;;;;5012170;28;20694;-76
2023/04/28 11:11:40;;;;;;;10.30;8.53;;;14.20;99.90;;;;;;5028576;28;20480;-76
2023/04/28 11:14:17;;;;;;;8.50;7.67;;;14.20;99.90;;;;;;5026121;28;20409;-76
2023/04/28 11:17:01;;;;;;;8.63;7.73;;;14.20;99.90;;;;;;5027503;28;20496;-77
2023/04/28 11:19:41;;;;;;;7.57;6.87;;;14.20;99.90;;;;;;5028348;28;20452;-76
2023/04/28 11:22:17;;;;;;;9.57;8.57;;;14.20;99.90;;;;;;5028686;28;20838;-76
2023/04/28 11:24:59;;;;;;;9.03;8.17;;;14.20;99.90;;;;;;5032183;28;20456;-76
2023/04/28 11:27:26;;;;;;;9.27;8.13;;;14.20;99.90;;;;;;5032357;28;20780;-76
2023/04/28 11:29:52;;;;;;;9.00;8.10;;;14.20;99.90;;;;;;5032219;28;20424;-77
2023/04/28 11:32:29;;;;;;;10.03;8.60;;;14.10;99.90;;;;;;5032487;28;20436;-76
2023/04/28 11:34:55;;;;;;;9.57;8.67;;;14.10;99.90;;;;;;5030836;28;20420;-76
2023/04/28 11:37:21;;;;;;;10.57;9.47;;;14.10;99.90;;;;;;5031570;28;20786;-77
2023/04/28 11:39:48;;;;;;;11.57;8.50;;;14.10;99.90;;;;;;5029436;28;20210;-76
2023/04/28 11:42:14;;;;;;;13.80;9.40;;;14.10;99.90;;;;;;5031978;28;20433;-77
2023/04/28 11:44:40;;;;;;;11.90;10.70;;;14.20;99.90;;;;;;5031970;28;20413;-76
2023/04/28 11:47:06;;;;;;;13.27;11.87;;;14.10;99.90;;;;;;5032111;28;20479;-77
2023/04/28 11:49:43;;;;;;;12.53;11.10;;;14.10;99.90;;;;;;5030747;28;20182;-77
2023/04/28 11:52:09;;;;;;;12.30;11.10;;;14.20;99.90;;;;;;5031991;28;20440;-76
2023/04/28 11:54:36;;;;;;;13.30;11.80;;;14.20;99.90;;;;;;5031840;28;20452;-76
2023/04/28 11:57:05;;;;;;;12.07;10.87;;;14.20;99.90;;;;;;5031733;28;20417;-77
2023/04/28 11:59:33;;;;;;;12.60;11.00;;;14.20;99.90;;;;;;5032013;28;20767;-76
2023/04/28 12:02:06;;;;;;;12.13;11.03;;;14.20;99.90;;;;;;5031848;28;20784;-77
2023/04/28 12:04:38;;;;;;;13.10;11.70;;;14.20;99.90;;;;;;5030978;28;20463;-77
2023/04/28 12:07:15;;;;;;;11.93;10.73;;;14.20;99.90;;;;;;5030473;28;20455;-76
2023/04/28 12:10:17;;;;;;;13.90;12.60;;;14.20;99.90;;;;;;5030426;28;20421;-76
2023/04/28 12:12:44;;;;;;;14.03;12.63;;;14.20;99.90;;;;;;5031554;28;20772;-76
2023/04/28 12:15:10;;;;;;;12.57;11.37;;;14.30;99.90;;;;;;5033070;28;20425;-76
2023/04/28 12:17:40;;;;;;;12.83;11.57;;;14.30;99.90;;;;;;5031982;28;20452;-76
2023/04/28 12:20:11;;;;;;;14.90;13.50;;;14.30;99.90;;;;;;5030169;28;20448;-77
2023/04/28 12:22:50;;;;;;;13.57;12.27;;;14.40;99.90;;;;;;5031481;28;20488;-77
2023/04/28 12:25:19;;;;;;;12.70;11.43;;;14.40;99.90;;;;;;5030035;28;20461;-76
2023/04/28 12:28:01;;;;;;;12.43;11.23;;;14.50;99.90;;;;;;5031222;28;20413;-76
2023/04/28 12:30:27;;;;;;;13.50;12.23;;;14.50;99.90;;;;;;5030033;28;20513;-77
2023/04/28 12:32:54;;;;;;;14.13;12.47;;;14.50;99.90;;;;;;5030672;28;21107;-76
2023/04/28 12:35:27;;;;;;;13.23;11.93;;;14.50;99.90;;;;;;5031063;28;20507;-76
2023/04/28 12:37:55;;;;;;;11.40;10.30;;;14.50;99.90;;;;;;5030611;28;20420;-77
2023/04/28 12:40:22;;;;;;;12.07;10.97;;;14.50;99.90;;;;;;5031150;28;20417;-77
2023/04/28 12:42:47;;;;;;;11.50;10.50;;;14.50;99.90;;;;;;5030968;28;20918;-77
2023/04/28 12:45:15;;;;;;;13.50;12.20;;;14.60;99.90;;;;;;5031015;28;20468;-77
2023/04/28 12:47:41;;;;;;;14.77;13.17;;;14.60;99.90;;;;;;5029367;28;20671;-76
2023/04/28 12:50:07;;;;;;;15.20;13.60;;;14.60;99.90;;;;;;5031107;28;20739;-76
2023/04/28 12:52:34;;;;;;;13.13;11.83;;;14.60;99.90;;;;;;5030977;28;20448;-77
2023/04/28 12:55:00;;;;;;;15.83;14.20;;;14.60;99.90;;;;;;5030843;28;20413;-76
2023/04/28 12:57:27;;;;;;;17.17;15.37;;;14.60;99.90;;;;;;5030998;28;20427;-76
2023/04/28 12:59:54;;;;;;;18.20;15.87;;;14.70;99.90;;;;;;5030664;28;21040;-77
2023/04/28 13:02:20;;;;;;;19.00;16.50;;;14.70;99.90;;;;;;5028552;28;20441;-77
2023/04/28 13:04:46;;;;;;;18.60;16.60;;;14.80;99.90;;;;;;5030196;28;21020;-76
2023/04/28 13:07:12;;;;;;;19.40;17.37;;;14.80;99.90;;;;;;5030584;28;20643;-77
2023/04/28 13:09:38;;;;;;;18.90;16.80;;;14.90;99.90;;;;;;5030311;28;20179;-77
2023/04/28 13:12:04;;;;;;;20.17;16.80;;;15.00;99.90;;;;;;5030660;28;20432;-76
2023/04/28 13:14:30;;;;;;;18.97;16.97;;;15.10;99.90;;;;;;5030374;28;20232;-77
2023/04/28 13:16:56;;;;;;;18.40;16.40;;;15.20;99.90;;;;;;5030518;28;20183;-76
2023/04/28 13:19:22;;;;;;;19.80;16.73;;;15.30;99.90;;;;;;5030269;28;20485;-77
2023/04/28 13:21:48;;;;;;;18.37;16.47;;;15.40;99.90;;;;;;5029404;28;20595;-76